createdAt,value
2018-10-03T00:01:53.349Z,18.40
2018-10-03T00:04:22.238Z,18.40
2018-10-03T00:06:50.792Z,18.40
2018-10-03T00:09:19.497Z,18.40
2018-10-03T00:11:49.863Z,18.40
2018-10-03T00:14:21.776Z,18.40
2018-10-03T00:16:50.330Z,18.40
2018-10-03T00:19:18.817Z,18.40
2018-10-03T00:21:47.479Z,18.40
2018-10-03T00:24:16.085Z,18.30
2018-10-03T00:26:44.891Z,18.40
2018-10-03T00:29:13.482Z,18.40
2018-10-03T00:31:44.600Z,18.30
2018-10-03T00:34:13.123Z,18.40
2018-10-03T00:36:41.706Z,18.40
2018-10-03T00:39:11.330Z,18.40
2018-10-03T00:41:41.335Z,18.30
2018-10-03T00:44:10.096Z,18.30
2018-10-03T00:46:39.057Z,18.40
2018-10-03T00:49:08.374Z,18.30
2018-10-03T00:51:37.286Z,18.30
2018-10-03T00:54:05.951Z,18.30
2018-10-03T00:56:34.583Z,18.30
2018-10-03T00:59:03.278Z,18.30
2018-10-03T01:01:32.087Z,18.30
2018-10-03T01:04:00.550Z,18.30
2018-10-03T01:06:29.188Z,18.40
2018-10-03T01:08:57.719Z,18.30
2018-10-03T01:11:26.467Z,18.30
2018-10-03T01:13:55.148Z,18.30
2018-10-03T01:16:23.671Z,18.40
2018-10-03T01:18:52.364Z,18.30
2018-10-03T01:21:20.992Z,18.30
2018-10-03T01:23:49.836Z,18.30
2018-10-03T01:26:18.423Z,18.30
2018-10-03T01:28:46.887Z,18.30
2018-10-03T01:31:15.570Z,18.30
2018-10-03T01:33:44.057Z,18.30
2018-10-03T01:36:13.761Z,18.30
2018-10-03T01:38:42.357Z,18.30
2018-10-03T01:41:10.992Z,18.30
2018-10-03T01:43:39.691Z,18.30
2018-10-03T01:46:08.271Z,18.30
2018-10-03T01:48:36.882Z,18.30
2018-10-03T01:51:05.439Z,18.30
2018-10-03T01:53:34.113Z,18.30
2018-10-03T01:56:02.638Z,18.30
2018-10-03T01:58:31.172Z,18.30
2018-10-03T02:00:59.757Z,18.30
2018-10-03T02:03:28.188Z,18.30
2018-10-03T02:05:56.681Z,18.30
2018-10-03T02:08:25.210Z,18.30
2018-10-03T02:10:53.846Z,18.20
2018-10-03T02:13:22.400Z,18.30
2018-10-03T02:15:50.985Z,18.30
2018-10-03T02:18:19.594Z,18.30
2018-10-03T02:20:48.136Z,18.30
2018-10-03T02:23:16.779Z,18.30
2018-10-03T02:25:45.426Z,18.30
2018-10-03T02:28:15.031Z,18.30
2018-10-03T02:30:43.756Z,18.30
2018-10-03T02:33:12.633Z,18.20
2018-10-03T02:35:41.317Z,18.20
2018-10-03T02:38:09.886Z,18.30
2018-10-03T02:40:38.800Z,18.30
2018-10-03T02:43:07.397Z,18.20
2018-10-03T02:45:35.889Z,18.20
2018-10-03T02:48:04.568Z,18.20
2018-10-03T02:50:33.336Z,18.20
2018-10-03T02:53:01.839Z,18.20
2018-10-03T02:55:30.348Z,18.20
2018-10-03T02:57:58.941Z,18.30
2018-10-03T03:00:27.403Z,18.20
2018-10-03T03:02:55.924Z,18.20
2018-10-03T03:05:24.434Z,18.20
2018-10-03T03:07:52.974Z,18.20
2018-10-03T03:10:21.637Z,18.20
2018-10-03T03:12:50.160Z,18.30
2018-10-03T03:15:18.678Z,18.20
2018-10-03T03:17:47.238Z,18.20
2018-10-03T03:20:15.917Z,18.20
2018-10-03T03:22:44.453Z,18.20
2018-10-03T03:25:13.191Z,18.20
2018-10-03T03:27:41.871Z,18.20
2018-10-03T03:30:10.454Z,18.30
2018-10-03T03:32:39.292Z,18.20
2018-10-03T03:35:07.846Z,18.20
2018-10-03T03:37:36.366Z,18.30
2018-10-03T03:40:04.930Z,18.20
2018-10-03T03:42:33.449Z,18.30
2018-10-03T03:45:01.932Z,18.20
2018-10-03T03:47:30.390Z,18.20
2018-10-03T03:49:58.838Z,18.20
2018-10-03T03:52:27.333Z,18.20
2018-10-03T03:54:55.864Z,18.20
2018-10-03T03:57:24.374Z,18.20
2018-10-03T03:59:52.861Z,18.20
2018-10-03T04:02:21.326Z,18.20
2018-10-03T04:04:50.064Z,18.20
2018-10-03T04:07:18.695Z,18.20
2018-10-03T04:09:47.191Z,18.20
2018-10-03T04:12:15.621Z,18.20
2018-10-03T04:14:44.145Z,18.20
2018-10-03T04:17:12.587Z,18.20
2018-10-03T04:19:41.106Z,18.20
2018-10-03T04:22:09.513Z,18.20
2018-10-03T04:24:38.295Z,18.20
2018-10-03T04:27:06.762Z,18.20
2018-10-03T04:29:35.227Z,18.20
2018-10-03T04:32:03.694Z,18.20
2018-10-03T04:34:32.255Z,18.20
2018-10-03T04:37:00.758Z,18.20
2018-10-03T04:39:29.251Z,18.20
2018-10-03T04:41:57.710Z,18.20
2018-10-03T04:44:26.275Z,18.20
2018-10-03T04:46:54.689Z,18.20
2018-10-03T04:49:23.131Z,18.20
2018-10-03T04:51:51.714Z,18.20
2018-10-03T04:54:20.161Z,18.20
2018-10-03T04:56:48.580Z,18.20
2018-10-03T04:59:17.090Z,18.20
2018-10-03T05:01:45.565Z,18.20
2018-10-03T05:04:14.025Z,18.20
2018-10-03T05:06:42.493Z,18.20
2018-10-03T05:09:11.122Z,18.20
2018-10-03T05:11:40.636Z,18.20
2018-10-03T05:14:09.156Z,18.20
2018-10-03T05:16:37.680Z,18.20
2018-10-03T05:19:06.207Z,18.20
2018-10-03T05:21:34.696Z,18.20
2018-10-03T05:24:03.195Z,18.20
2018-10-03T05:26:31.674Z,18.20
2018-10-03T05:29:00.143Z,18.20
2018-10-03T05:31:28.805Z,18.20
2018-10-03T05:33:57.321Z,18.20
2018-10-03T05:36:25.807Z,18.10
2018-10-03T05:38:54.305Z,18.20
2018-10-03T05:41:22.779Z,18.20
2018-10-03T05:43:51.362Z,18.20
2018-10-03T05:46:19.843Z,18.20
2018-10-03T05:48:48.334Z,18.10
2018-10-03T05:51:16.777Z,18.10
2018-10-03T05:53:45.225Z,18.20
2018-10-03T05:56:13.700Z,18.10
2018-10-03T05:58:42.698Z,18.20
2018-10-03T06:01:11.247Z,18.20
2018-10-03T06:03:40.544Z,18.10
2018-10-03T06:06:09.095Z,18.20
2018-10-03T06:08:37.857Z,18.20
2018-10-03T06:11:06.674Z,18.20
2018-10-03T06:13:35.183Z,18.20
2018-10-03T06:16:03.843Z,18.20
2018-10-03T06:18:32.560Z,18.30
2018-10-03T06:21:01.245Z,18.20
2018-10-03T06:23:29.720Z,18.30
2018-10-03T06:25:58.199Z,18.30
2018-10-03T06:28:26.683Z,18.30
2018-10-03T06:30:55.142Z,18.30
2018-10-03T06:33:23.907Z,18.40
2018-10-03T06:35:52.450Z,18.40
2018-10-03T06:38:21.155Z,18.50
2018-10-03T06:40:49.666Z,18.50
2018-10-03T06:43:18.411Z,18.60
2018-10-03T06:45:47.039Z,18.60
2018-10-03T06:48:15.561Z,18.70
2018-10-03T06:50:44.189Z,18.70
2018-10-03T06:53:12.948Z,18.70
2018-10-03T06:55:41.497Z,18.70
2018-10-03T06:58:10.046Z,18.80
2018-10-03T07:00:39.073Z,18.80
2018-10-03T07:03:07.890Z,18.80
2018-10-03T07:05:36.572Z,18.80
2018-10-03T07:08:05.180Z,18.80
2018-10-03T07:10:33.898Z,18.80
2018-10-03T07:13:02.624Z,18.80
2018-10-03T07:15:31.298Z,18.80
2018-10-03T07:17:59.911Z,18.80
2018-10-03T07:20:28.567Z,18.80
2018-10-03T07:22:57.131Z,18.80
2018-10-03T07:25:25.658Z,18.90
2018-10-03T07:27:54.238Z,18.80
2018-10-03T07:30:22.970Z,18.90
2018-10-03T07:32:51.595Z,18.90
2018-10-03T07:35:20.160Z,18.90
2018-10-03T07:37:48.815Z,18.90
2018-10-03T07:40:17.764Z,18.90
2018-10-03T07:42:46.627Z,18.90
2018-10-03T07:45:15.334Z,18.90
2018-10-03T07:47:44.191Z,18.90
2018-10-03T07:50:12.645Z,18.90
2018-10-03T07:52:41.542Z,18.90
2018-10-03T07:55:10.188Z,18.90
2018-10-03T07:57:38.859Z,18.90
2018-10-03T08:00:08.409Z,18.90
2018-10-03T08:02:38.046Z,18.90
2018-10-03T08:05:06.795Z,18.90
2018-10-03T08:07:35.518Z,18.90
2018-10-03T08:10:04.259Z,18.90
2018-10-03T08:12:32.783Z,19.00
2018-10-03T08:15:01.838Z,18.90
2018-10-03T08:17:30.447Z,19.00
2018-10-03T08:19:59.275Z,18.90
2018-10-03T08:22:28.044Z,18.90
2018-10-03T08:24:56.803Z,19.00
2018-10-03T08:27:25.389Z,18.90
2018-10-03T08:29:54.274Z,19.00
2018-10-03T08:32:22.835Z,19.00
2018-10-03T08:34:51.473Z,18.90
2018-10-03T08:37:20.138Z,19.00
2018-10-03T08:39:48.755Z,19.00
2018-10-03T08:42:17.282Z,19.00
2018-10-03T08:44:46.029Z,19.00
2018-10-03T08:47:14.761Z,19.00
2018-10-03T08:49:45.253Z,19.00
2018-10-03T08:52:14.746Z,19.00
2018-10-03T08:54:43.282Z,19.00
2018-10-03T08:57:11.853Z,19.00
2018-10-03T08:59:41.103Z,19.00
2018-10-03T09:02:34.522Z,19.00
2018-10-03T09:05:04.258Z,19.00
2018-10-03T09:07:33.011Z,19.00
2018-10-03T09:10:01.538Z,19.00
2018-10-03T09:12:30.199Z,19.00
2018-10-03T09:14:58.868Z,19.00
2018-10-03T09:17:27.370Z,19.00
2018-10-03T09:19:56.047Z,19.10
2018-10-03T09:22:24.531Z,19.00
2018-10-03T09:24:53.203Z,19.00
2018-10-03T09:27:21.794Z,19.00
2018-10-03T09:29:50.535Z,19.00
2018-10-03T09:32:19.070Z,19.10
2018-10-03T09:34:47.666Z,19.00
2018-10-03T09:37:16.209Z,19.10
2018-10-03T09:39:44.819Z,19.10
2018-10-03T09:42:13.477Z,19.00
2018-10-03T09:44:42.093Z,19.10
2018-10-03T09:47:10.773Z,19.10
2018-10-03T09:49:40.170Z,19.10
2018-10-03T09:52:08.750Z,19.10
2018-10-03T09:54:37.236Z,19.10
2018-10-03T09:57:05.927Z,19.10
2018-10-03T09:59:34.747Z,19.10
2018-10-03T10:02:03.506Z,19.10
2018-10-03T10:04:32.041Z,19.10
2018-10-03T10:07:00.798Z,19.10
2018-10-03T10:09:29.502Z,19.10
2018-10-03T10:11:58.193Z,19.10
2018-10-03T10:14:26.853Z,19.10
2018-10-03T10:16:55.437Z,19.10
2018-10-03T10:19:23.982Z,19.10
2018-10-03T10:21:52.418Z,19.10
2018-10-03T10:24:20.942Z,19.10
2018-10-03T10:26:49.465Z,19.10
2018-10-03T10:29:18.376Z,19.20
2018-10-03T10:31:47.002Z,19.20
2018-10-03T10:34:15.988Z,19.10
2018-10-03T10:36:44.993Z,19.20
2018-10-03T10:39:13.756Z,19.20
2018-10-03T10:41:42.322Z,19.20
2018-10-03T10:44:10.792Z,19.20
2018-10-03T10:46:40.622Z,19.20
2018-10-03T10:49:09.409Z,19.20
2018-10-03T10:51:39.648Z,19.20
2018-10-03T10:54:08.374Z,19.20
2018-10-03T10:56:37.226Z,19.20
2018-10-03T10:59:06.498Z,19.20
2018-10-03T11:01:35.481Z,19.20
2018-10-03T11:04:04.623Z,19.20
2018-10-03T11:06:33.277Z,19.20
2018-10-03T11:09:01.865Z,19.20
2018-10-03T11:11:30.540Z,19.20
2018-10-03T11:13:59.173Z,19.20
2018-10-03T11:16:28.272Z,19.20
2018-10-03T11:18:56.962Z,19.20
2018-10-03T11:21:25.602Z,19.20
2018-10-03T11:23:54.321Z,19.20
2018-10-03T11:26:22.961Z,19.20
2018-10-03T11:28:51.656Z,19.20
2018-10-03T11:31:20.270Z,19.20
2018-10-03T11:33:48.889Z,19.20
2018-10-03T11:36:17.666Z,19.20
2018-10-03T11:38:46.384Z,19.20
2018-10-03T11:41:15.037Z,19.20
2018-10-03T11:43:43.661Z,19.20
2018-10-03T11:46:13.122Z,19.20
2018-10-03T11:48:41.730Z,19.20
2018-10-03T11:51:10.249Z,19.20
2018-10-03T11:53:39.282Z,19.10
2018-10-03T11:56:09.230Z,19.20
2018-10-03T11:58:38.449Z,19.10
2018-10-03T12:01:07.228Z,19.10
2018-10-03T12:03:35.890Z,19.10
2018-10-03T12:06:04.486Z,19.10
2018-10-03T12:08:33.175Z,19.10
2018-10-03T12:11:01.622Z,19.10
2018-10-03T12:13:30.960Z,19.10
2018-10-03T12:15:59.747Z,19.10
2018-10-03T12:18:28.347Z,19.10
2018-10-03T12:20:57.331Z,19.00
2018-10-03T12:23:26.138Z,19.00
2018-10-03T12:25:55.164Z,19.10
2018-10-03T12:28:24.500Z,19.00
2018-10-03T12:30:53.612Z,19.00
2018-10-03T12:33:22.303Z,19.00
2018-10-03T12:35:50.826Z,19.00
2018-10-03T12:38:19.444Z,19.00
2018-10-03T12:40:48.019Z,19.00
2018-10-03T12:43:17.170Z,19.00
2018-10-03T12:45:45.873Z,19.00
2018-10-03T12:48:14.390Z,19.00
2018-10-03T12:50:43.408Z,19.00
2018-10-03T12:53:12.294Z,19.00
2018-10-03T12:55:40.907Z,19.00
2018-10-03T12:58:09.754Z,18.90
2018-10-03T13:00:39.796Z,18.90
2018-10-03T13:03:08.392Z,18.90
2018-10-03T13:05:37.119Z,18.90
2018-10-03T13:08:05.703Z,18.90
2018-10-03T13:10:34.695Z,18.90
2018-10-03T13:13:03.538Z,18.90
2018-10-03T13:15:32.338Z,18.90
2018-10-03T13:18:00.894Z,18.90
2018-10-03T13:20:29.585Z,18.90
2018-10-03T13:22:58.386Z,18.90
2018-10-03T13:25:27.136Z,18.90
2018-10-03T13:27:55.739Z,18.90
2018-10-03T13:30:24.217Z,18.90
2018-10-03T13:32:52.944Z,18.90
2018-10-03T13:35:21.502Z,18.90
2018-10-03T13:37:50.233Z,18.90
2018-10-03T13:40:18.794Z,18.90
2018-10-03T13:42:47.475Z,18.90
2018-10-03T13:45:16.267Z,18.90
2018-10-03T13:47:45.036Z,18.90
2018-10-03T13:50:13.552Z,18.90
2018-10-03T13:52:42.497Z,18.80
2018-10-03T13:55:11.307Z,18.90
2018-10-03T13:57:39.969Z,18.80
2018-10-03T14:00:09.170Z,18.80
2018-10-03T14:02:38.036Z,18.90
2018-10-03T14:05:06.747Z,18.80
2018-10-03T14:07:35.431Z,18.80
2018-10-03T14:10:04.441Z,18.80
2018-10-03T14:12:33.045Z,18.80
2018-10-03T14:15:01.867Z,18.80
2018-10-03T14:17:30.578Z,18.80
2018-10-03T14:19:59.367Z,18.80
2018-10-03T14:22:27.876Z,18.80
2018-10-03T14:24:56.571Z,18.80
2018-10-03T14:27:25.127Z,18.80
2018-10-03T14:29:53.909Z,18.80
2018-10-03T14:32:23.120Z,18.80
2018-10-03T14:34:51.823Z,18.80
2018-10-03T14:37:20.339Z,18.80
2018-10-03T14:39:48.929Z,18.80
2018-10-03T14:42:17.536Z,18.80
2018-10-03T14:44:46.903Z,18.80
2018-10-03T14:47:15.431Z,18.80
2018-10-03T14:49:44.167Z,18.70
2018-10-03T14:52:13.107Z,18.80
2018-10-03T14:54:41.642Z,18.80
2018-10-03T14:57:10.512Z,18.80
2018-10-03T14:59:39.471Z,18.70
2018-10-03T15:02:08.287Z,18.80
2018-10-03T15:04:37.432Z,18.80
2018-10-03T15:07:06.233Z,18.80
2018-10-03T15:09:34.769Z,18.80
2018-10-03T15:12:03.268Z,18.70
2018-10-03T15:14:32.027Z,18.80
2018-10-03T15:17:00.656Z,18.80
2018-10-03T15:19:29.322Z,18.70
2018-10-03T15:21:58.096Z,18.70
2018-10-03T15:24:26.606Z,18.70
2018-10-03T15:26:55.405Z,18.80
2018-10-03T15:29:23.974Z,18.70
2018-10-03T15:31:52.481Z,18.70
2018-10-03T15:34:21.073Z,18.70
2018-10-03T15:36:49.765Z,18.70
2018-10-03T15:39:18.282Z,18.70
2018-10-03T15:41:46.978Z,18.70
2018-10-03T15:44:15.609Z,18.70
2018-10-03T15:46:44.279Z,18.70
2018-10-03T15:49:12.838Z,18.70
2018-10-03T15:51:41.432Z,18.70
2018-10-03T15:54:10.197Z,18.70
2018-10-03T15:56:39.277Z,18.70
2018-10-03T15:59:07.694Z,18.70
2018-10-03T16:01:36.298Z,18.70
2018-10-03T16:04:04.863Z,18.70
2018-10-03T16:06:33.417Z,18.70
2018-10-03T16:09:02.051Z,18.70
2018-10-03T16:11:30.673Z,18.70
2018-10-03T16:13:59.538Z,18.70
2018-10-03T16:16:28.143Z,18.70
2018-10-03T16:18:56.807Z,18.70
2018-10-03T16:21:25.529Z,18.70
2018-10-03T16:23:54.082Z,18.70
2018-10-03T16:26:22.766Z,18.70
2018-10-03T16:28:51.182Z,18.70
2018-10-03T16:31:19.705Z,18.70
2018-10-03T16:33:48.459Z,18.70
2018-10-03T16:36:17.045Z,18.70
2018-10-03T16:38:45.709Z,18.60
2018-10-03T16:41:14.527Z,18.70
2018-10-03T16:43:43.241Z,18.70
2018-10-03T16:46:12.026Z,18.70
2018-10-03T16:48:40.606Z,18.70
2018-10-03T16:51:09.094Z,18.70
2018-10-03T16:53:37.746Z,18.70
2018-10-03T16:56:06.518Z,18.70
2018-10-03T16:58:35.017Z,18.70
2018-10-03T17:01:03.707Z,18.70
2018-10-03T17:03:32.593Z,18.70
2018-10-03T17:06:01.419Z,18.70
2018-10-03T17:08:30.127Z,18.60
2018-10-03T17:10:59.133Z,18.60
2018-10-03T17:13:28.150Z,18.70
2018-10-03T17:15:56.858Z,18.60
2018-10-03T17:18:25.698Z,18.60
2018-10-03T17:20:54.349Z,18.70
2018-10-03T17:23:23.002Z,18.70
2018-10-03T17:25:51.987Z,18.70
2018-10-03T17:28:23.221Z,18.60
2018-10-03T17:30:51.709Z,18.60
2018-10-03T17:33:20.196Z,18.60
2018-10-03T17:35:48.680Z,18.60
2018-10-03T17:38:17.109Z,18.60
2018-10-03T17:40:45.880Z,18.60
2018-10-03T17:43:14.380Z,18.60
2018-10-03T17:45:42.991Z,18.60
2018-10-03T17:48:11.540Z,18.60
2018-10-03T17:50:40.606Z,18.60
2018-10-03T17:53:09.167Z,18.60
2018-10-03T17:55:37.757Z,18.70
2018-10-03T17:58:07.633Z,18.60
2018-10-03T18:00:39.288Z,18.60
2018-10-03T18:03:11.463Z,18.60
2018-10-03T18:05:42.568Z,18.60
2018-10-03T18:08:15.012Z,18.60
2018-10-03T18:10:45.777Z,18.60
2018-10-03T18:13:14.362Z,18.60
2018-10-03T18:15:43.116Z,18.60
2018-10-03T18:18:11.764Z,18.60
2018-10-03T18:20:40.976Z,18.60
2018-10-03T18:23:09.490Z,18.60
2018-10-03T18:25:38.091Z,18.60
2018-10-03T18:28:06.840Z,18.60
2018-10-03T18:30:35.312Z,18.60
2018-10-03T18:33:04.517Z,18.60
2018-10-03T18:35:33.399Z,18.60
2018-10-03T18:38:02.095Z,18.60
2018-10-03T18:40:30.506Z,18.60
2018-10-03T18:42:59.209Z,18.60
2018-10-03T18:45:27.730Z,18.60
2018-10-03T18:47:56.562Z,18.60
2018-10-03T18:50:25.207Z,18.60
2018-10-03T18:52:53.920Z,18.60
2018-10-03T18:55:22.719Z,18.60
2018-10-03T18:57:51.198Z,18.60
2018-10-03T19:00:19.884Z,18.60
2018-10-03T19:02:48.357Z,18.60
2018-10-03T19:05:17.066Z,18.60
2018-10-03T19:07:45.950Z,18.60
2018-10-03T19:10:15.566Z,18.60
2018-10-03T19:12:44.253Z,18.60
2018-10-03T19:15:12.687Z,18.60
2018-10-03T19:17:41.248Z,18.60
2018-10-03T19:20:10.001Z,18.60
2018-10-03T19:22:38.909Z,18.60
2018-10-03T19:25:07.913Z,18.60
2018-10-03T19:27:36.594Z,18.60
2018-10-03T19:30:05.304Z,18.60
2018-10-03T19:32:33.979Z,18.60
2018-10-03T19:35:05.594Z,18.60
2018-10-03T19:37:34.409Z,18.60
2018-10-03T19:40:03.121Z,18.60
2018-10-03T19:42:31.977Z,18.60
2018-10-03T19:45:00.853Z,18.60
2018-10-03T19:47:29.617Z,18.60
2018-10-03T19:49:58.490Z,18.60
2018-10-03T19:52:27.005Z,18.60
2018-10-03T19:54:56.109Z,18.60
2018-10-03T19:57:24.942Z,18.60
2018-10-03T19:59:55.066Z,18.60
2018-10-03T20:02:23.676Z,18.60
2018-10-03T20:04:52.115Z,18.60
2018-10-03T20:07:21.246Z,18.60
2018-10-03T20:09:50.033Z,18.60
2018-10-03T20:12:19.754Z,18.60
2018-10-03T20:14:48.472Z,18.60
2018-10-03T20:17:17.294Z,18.60
2018-10-03T20:19:46.228Z,18.60
2018-10-03T20:22:14.841Z,18.60
2018-10-03T20:24:43.482Z,18.60
2018-10-03T20:27:12.585Z,18.60
2018-10-03T20:29:41.657Z,18.50
2018-10-03T20:32:10.245Z,18.60
2018-10-03T20:34:40.139Z,18.60
2018-10-03T20:37:08.704Z,18.60
2018-10-03T20:39:37.219Z,18.50
2018-10-03T20:42:05.702Z,18.60
2018-10-03T20:44:34.240Z,18.50
2018-10-03T20:47:02.843Z,18.60
2018-10-03T20:49:31.362Z,18.50
2018-10-03T20:52:00.046Z,18.60
2018-10-03T20:54:28.749Z,18.50
2018-10-03T20:56:57.507Z,18.50
2018-10-03T20:59:26.971Z,18.50
2018-10-03T21:01:55.641Z,18.60
2018-10-03T21:04:24.434Z,18.60
2018-10-03T21:06:52.934Z,18.60
2018-10-03T21:09:21.664Z,18.50
2018-10-03T21:11:50.271Z,18.50
2018-10-03T21:14:19.114Z,18.60
2018-10-03T21:16:49.296Z,18.60
2018-10-03T21:19:18.257Z,18.50
2018-10-03T21:21:47.636Z,18.60
2018-10-03T21:24:16.233Z,18.50
2018-10-03T21:26:44.802Z,18.50
2018-10-03T21:29:13.592Z,18.50
2018-10-03T21:31:42.618Z,18.50
2018-10-03T21:34:11.854Z,18.50
2018-10-03T21:36:40.696Z,18.50
2018-10-03T21:39:09.610Z,18.60
2018-10-03T21:41:38.644Z,18.50
2018-10-03T21:44:07.517Z,18.50
2018-10-03T21:46:35.986Z,18.50
2018-10-03T21:49:04.598Z,18.50
2018-10-03T21:51:33.161Z,18.50
2018-10-03T21:54:01.840Z,18.50
2018-10-03T21:56:30.427Z,18.50
2018-10-03T21:58:59.059Z,18.50
2018-10-03T22:01:27.986Z,18.50
2018-10-03T22:03:56.510Z,18.50
2018-10-03T22:06:25.293Z,18.50
2018-10-03T22:08:53.766Z,18.50
2018-10-03T22:11:22.410Z,18.50
2018-10-03T22:13:51.022Z,18.50
2018-10-03T22:16:20.682Z,18.50
2018-10-03T22:18:49.360Z,18.50
2018-10-03T22:21:17.986Z,18.50
2018-10-03T22:23:46.678Z,18.50
2018-10-03T22:26:17.920Z,18.50
2018-10-03T22:28:48.383Z,18.50
2018-10-03T22:31:18.664Z,18.50
2018-10-03T22:33:47.509Z,18.60
2018-10-03T22:36:26.536Z,18.60
2018-10-03T22:38:58.315Z,18.60
2018-10-03T22:41:26.917Z,18.60
2018-10-03T22:43:55.587Z,18.60
2018-10-03T22:46:24.044Z,18.60
2018-10-03T22:48:53.879Z,18.60
2018-10-03T22:51:22.494Z,18.60
2018-10-03T22:53:51.079Z,18.60
2018-10-03T22:56:19.933Z,18.60
2018-10-03T22:58:48.502Z,18.60
2018-10-03T23:01:18.845Z,18.60
2018-10-03T23:03:48.704Z,18.60
2018-10-03T23:06:17.291Z,18.60
2018-10-03T23:08:46.120Z,18.60
2018-10-03T23:11:14.630Z,18.60
2018-10-03T23:13:43.494Z,18.60
2018-10-03T23:16:12.022Z,18.60
2018-10-03T23:18:41.103Z,18.60
2018-10-03T23:21:09.666Z,18.60
2018-10-03T23:23:38.438Z,18.60
2018-10-03T23:26:07.075Z,18.60
2018-10-03T23:28:35.876Z,18.60
2018-10-03T23:31:04.573Z,18.60
2018-10-03T23:33:33.377Z,18.60
2018-10-03T23:36:04.723Z,18.60
2018-10-03T23:38:34.890Z,18.60
2018-10-03T23:41:05.490Z,18.60
2018-10-03T23:43:35.664Z,18.60
2018-10-03T23:46:06.200Z,18.60
2018-10-03T23:48:36.898Z,18.60
2018-10-03T23:51:10.275Z,18.60
2018-10-03T23:53:39.405Z,18.60
2018-10-03T23:56:08.226Z,18.50
2018-10-03T23:58:36.842Z,18.60
